createdAt,value
2017-10-21T00:00:55.113Z,70.47
2017-10-21T00:03:23.550Z,62.43
2017-10-21T00:05:52.026Z,66.80
2017-10-21T00:08:20.469Z,64.03
2017-10-21T00:10:48.933Z,59.67
2017-10-21T00:13:17.377Z,61.63
2017-10-21T00:15:46.614Z,62.67
2017-10-21T00:18:15.065Z,49.77
2017-10-21T00:20:44.804Z,55.80
2017-10-21T00:23:13.274Z,55.13
2017-10-21T00:25:41.717Z,52.83
2017-10-21T00:28:10.946Z,54.13
2017-10-21T00:30:40.182Z,54.97
2017-10-21T00:33:08.650Z,62.20
2017-10-21T00:35:37.148Z,48.47
2017-10-21T00:38:05.630Z,57.27
2017-10-21T00:40:34.101Z,63.43
2017-10-21T00:43:02.569Z,57.23
2017-10-21T00:45:31.016Z,64.63
2017-10-21T00:47:59.548Z,60.80
2017-10-21T00:50:27.984Z,54.27
2017-10-21T00:52:56.516Z,61.37
2017-10-21T00:55:24.976Z,43.63
2017-10-21T00:57:53.412Z,48.77
2017-10-21T01:00:21.873Z,44.50
2017-10-21T01:02:50.352Z,66.10
2017-10-21T01:05:18.818Z,36.00
2017-10-21T01:07:47.263Z,49.90
2017-10-21T01:10:16.606Z,46.97
2017-10-21T01:12:45.094Z,50.37
2017-10-21T01:15:13.578Z,46.40
2017-10-21T01:17:42.023Z,59.73
2017-10-21T01:20:11.252Z,47.87
2017-10-21T01:22:39.689Z,38.70
2017-10-21T01:25:08.923Z,30.00
2017-10-21T01:27:37.422Z,27.37
2017-10-21T01:30:05.996Z,31.43
2017-10-21T01:32:34.437Z,38.50
2017-10-21T01:35:03.649Z,30.20
2017-10-21T01:37:32.982Z,32.67
2017-10-21T01:40:01.420Z,32.77
2017-10-21T01:42:30.653Z,30.57
2017-10-21T01:44:59.097Z,25.47
2017-10-21T01:47:27.571Z,38.40
2017-10-21T01:49:56.013Z,39.03
2017-10-21T01:52:24.482Z,31.03
2017-10-21T01:54:52.976Z,25.23
2017-10-21T01:57:21.562Z,44.33
2017-10-21T01:59:50.018Z,39.83
2017-10-21T02:02:18.480Z,40.47
2017-10-21T02:04:47.730Z,33.87
2017-10-21T02:07:16.303Z,32.53
2017-10-21T02:09:44.742Z,40.50
2017-10-21T02:12:14.081Z,36.60
2017-10-21T02:14:42.521Z,45.70
2017-10-21T02:17:11.730Z,49.60
2017-10-21T02:19:40.957Z,43.67
2017-10-21T02:22:09.406Z,38.30
2017-10-21T02:24:38.643Z,41.43
2017-10-21T02:27:07.135Z,35.40
2017-10-21T02:29:35.695Z,53.70
2017-10-21T02:32:04.137Z,34.10
2017-10-21T02:34:32.610Z,35.60
2017-10-21T02:37:01.053Z,32.67
2017-10-21T02:39:29.513Z,41.47
2017-10-21T02:41:58.731Z,35.23
2017-10-21T02:44:27.217Z,34.40
2017-10-21T02:46:55.672Z,29.37
2017-10-21T02:49:25.011Z,34.17
2017-10-21T02:51:53.459Z,39.50
2017-10-21T02:54:22.795Z,36.43
2017-10-21T02:56:51.280Z,45.30
2017-10-21T02:59:19.741Z,35.83
2017-10-21T03:01:48.205Z,42.60
2017-10-21T03:04:17.413Z,36.13
2017-10-21T03:06:45.918Z,37.93
2017-10-21T03:09:14.370Z,37.93
2017-10-21T03:11:43.600Z,31.50
2017-10-21T03:14:12.046Z,38.97
2017-10-21T03:16:41.379Z,53.97
2017-10-21T03:19:09.867Z,32.90
2017-10-21T03:21:38.328Z,48.00
2017-10-21T03:24:06.774Z,32.60
2017-10-21T03:26:36.002Z,28.70
2017-10-21T03:29:04.451Z,36.07
2017-10-21T03:31:33.688Z,39.50
2017-10-21T03:34:02.130Z,52.33
2017-10-21T03:36:30.594Z,30.10
2017-10-21T03:38:59.045Z,28.93
2017-10-21T03:41:27.638Z,43.47
2017-10-21T03:43:56.087Z,41.47
2017-10-21T03:46:25.295Z,36.00
2017-10-21T03:48:53.781Z,38.77
2017-10-21T03:51:22.273Z,32.90
2017-10-21T03:53:50.732Z,39.40
2017-10-21T03:56:19.933Z,36.63
2017-10-21T03:58:49.165Z,38.20
2017-10-21T04:01:17.622Z,34.13
2017-10-21T04:03:46.094Z,33.93
2017-10-21T04:06:15.302Z,40.20
2017-10-21T04:08:43.807Z,38.33
2017-10-21T04:11:12.246Z,45.50
2017-10-21T04:13:41.483Z,35.93
2017-10-21T04:16:09.924Z,29.43
2017-10-21T04:18:39.271Z,36.47
2017-10-21T04:21:07.713Z,37.63
2017-10-21T04:23:36.957Z,36.20
2017-10-21T04:26:05.406Z,42.80
2017-10-21T04:28:33.851Z,38.93
2017-10-21T04:31:02.314Z,30.33
2017-10-21T04:33:30.778Z,34.87
2017-10-21T04:35:59.241Z,33.10
2017-10-21T04:38:28.134Z,31.10
2017-10-21T04:40:56.611Z,40.97
2017-10-21T04:43:25.111Z,26.90
2017-10-21T04:45:53.587Z,39.57
2017-10-21T04:48:22.034Z,23.07
2017-10-21T04:50:51.279Z,23.33
2017-10-21T04:53:19.731Z,48.27
2017-10-21T04:55:48.974Z,30.33
2017-10-21T04:58:17.419Z,28.47
2017-10-21T05:00:45.903Z,21.37
2017-10-21T05:03:14.342Z,25.37
2017-10-21T05:05:42.890Z,23.63
2017-10-21T05:08:11.329Z,30.30
2017-10-21T05:10:40.575Z,33.13
2017-10-21T05:13:09.046Z,31.50
2017-10-21T05:15:37.539Z,20.90
2017-10-21T05:18:06.012Z,23.07
2017-10-21T05:20:34.457Z,22.77
2017-10-21T05:23:03.691Z,21.73
2017-10-21T05:25:32.169Z,28.50
2017-10-21T05:28:00.633Z,40.70
2017-10-21T05:30:29.143Z,27.97
2017-10-21T05:32:57.619Z,21.77
2017-10-21T05:35:26.057Z,37.63
2017-10-21T05:37:55.398Z,15.90
2017-10-21T05:40:23.847Z,40.67
2017-10-21T05:42:53.087Z,40.47
2017-10-21T05:45:21.561Z,40.80
2017-10-21T05:47:50.028Z,22.90
2017-10-21T05:50:18.474Z,32.50
2017-10-21T05:52:46.933Z,24.83
2017-10-21T05:55:17.129Z,25.27
2017-10-21T05:57:45.595Z,29.97
2017-10-21T06:00:14.103Z,27.13
2017-10-21T06:02:42.547Z,16.30
2017-10-21T06:05:11.879Z,21.73
2017-10-21T06:07:40.325Z,19.13
2017-10-21T06:10:09.554Z,20.13
2017-10-21T06:12:37.998Z,23.23
2017-10-21T06:15:07.234Z,27.17
2017-10-21T06:17:39.725Z,20.90
2017-10-21T06:20:08.200Z,21.67
2017-10-21T06:22:36.645Z,30.80
2017-10-21T06:25:05.876Z,24.73
2017-10-21T06:27:34.313Z,17.17
2017-10-21T06:30:02.851Z,25.57
2017-10-21T06:32:31.289Z,27.13
2017-10-21T06:35:00.525Z,31.30
2017-10-21T06:37:28.975Z,29.67
2017-10-21T06:39:58.305Z,26.27
2017-10-21T06:42:26.750Z,18.60
2017-10-21T06:44:55.987Z,26.90
2017-10-21T06:47:24.443Z,21.60
2017-10-21T06:49:53.651Z,17.03
2017-10-21T06:52:22.158Z,16.47
2017-10-21T06:54:50.598Z,25.67
2017-10-21T06:57:19.933Z,18.73
2017-10-21T06:59:48.390Z,23.40
2017-10-21T07:02:17.622Z,35.80
2017-10-21T07:04:46.098Z,34.13
2017-10-21T07:07:14.574Z,21.60
2017-10-21T07:09:43.075Z,23.13
2017-10-21T07:12:11.545Z,28.13
2017-10-21T07:14:39.989Z,21.10
2017-10-21T07:17:09.217Z,16.10
2017-10-21T07:19:37.662Z,25.93
2017-10-21T07:22:06.903Z,31.03
2017-10-21T07:24:35.341Z,17.83
2017-10-21T07:27:04.695Z,23.03
2017-10-21T07:29:33.179Z,24.50
2017-10-21T07:32:01.654Z,17.93
2017-10-21T07:34:30.133Z,25.20
2017-10-21T07:36:58.627Z,17.90
2017-10-21T07:39:27.089Z,14.47
2017-10-21T07:41:55.573Z,27.43
2017-10-21T07:44:24.866Z,24.53
2017-10-21T07:46:53.301Z,17.50
2017-10-21T07:49:21.761Z,17.47
2017-10-21T07:51:50.234Z,34.67
2017-10-21T07:54:18.697Z,28.03
2017-10-21T07:56:47.137Z,14.77
2017-10-21T07:59:16.499Z,22.40
2017-10-21T08:01:44.974Z,28.80
2017-10-21T08:04:13.448Z,25.43
2017-10-21T08:06:41.894Z,18.80
2017-10-21T08:09:11.102Z,23.10
2017-10-21T08:11:40.336Z,21.83
2017-10-21T08:14:08.784Z,20.80
2017-10-21T08:16:38.014Z,17.70
2017-10-21T08:19:06.453Z,21.43
2017-10-21T08:21:35.690Z,26.17
2017-10-21T08:24:04.139Z,24.27
2017-10-21T08:26:33.374Z,26.57
2017-10-21T08:29:01.809Z,27.80
2017-10-21T08:31:30.359Z,11.50
2017-10-21T08:33:58.803Z,34.67
2017-10-21T08:36:27.265Z,18.03
2017-10-21T08:38:56.518Z,18.37
2017-10-21T08:41:25.142Z,19.20
2017-10-21T08:43:54.361Z,19.53
2017-10-21T08:46:23.596Z,27.80
2017-10-21T08:48:52.046Z,20.30
2017-10-21T08:51:21.278Z,21.90
2017-10-21T08:53:49.748Z,23.53
2017-10-21T08:56:18.243Z,17.93
2017-10-21T08:58:46.826Z,30.53
2017-10-21T09:01:15.269Z,27.23
2017-10-21T09:03:44.493Z,25.17
2017-10-21T09:06:12.930Z,23.07
2017-10-21T09:08:41.394Z,22.80
2017-10-21T09:11:09.844Z,23.57
2017-10-21T09:13:38.314Z,21.33
2017-10-21T09:16:06.766Z,11.40
2017-10-21T09:18:36.115Z,25.17
2017-10-21T09:21:04.556Z,28.67
2017-10-21T09:23:33.792Z,13.60
2017-10-21T09:26:02.238Z,21.97
2017-10-21T09:28:31.478Z,25.93
2017-10-21T09:30:59.926Z,18.80
2017-10-21T09:33:29.185Z,22.47
2017-10-21T09:35:57.640Z,51.93
2017-10-21T09:38:26.099Z,100.67
2017-10-21T09:40:54.565Z,23.60
2017-10-21T09:43:23.774Z,14.50
2017-10-21T09:45:52.250Z,23.17
2017-10-21T09:48:21.486Z,12.93
2017-10-21T09:50:49.946Z,14.73
2017-10-21T09:53:18.381Z,23.97
2017-10-21T09:55:46.846Z,21.43
2017-10-21T09:58:15.295Z,34.30
2017-10-21T10:00:43.752Z,24.57
2017-10-21T10:03:12.992Z,25.67
2017-10-21T10:05:41.465Z,38.40
2017-10-21T10:08:09.955Z,20.70
2017-10-21T10:10:38.423Z,26.00
2017-10-21T10:13:06.857Z,9.57
2017-10-21T10:15:35.405Z,21.53
2017-10-21T10:18:03.859Z,19.37
2017-10-21T10:20:32.365Z,20.47
2017-10-21T10:23:00.825Z,21.80
2017-10-21T10:25:29.270Z,15.10
2017-10-21T10:27:57.808Z,27.30
2017-10-21T10:30:26.390Z,16.47
2017-10-21T10:32:54.849Z,29.67
2017-10-21T10:35:24.068Z,15.37
2017-10-21T10:37:52.562Z,21.23
2017-10-21T10:40:21.002Z,17.80
2017-10-21T10:42:50.345Z,12.90
2017-10-21T10:45:18.786Z,20.83
2017-10-21T10:47:48.018Z,17.87
2017-10-21T10:50:16.472Z,14.90
2017-10-21T10:52:44.954Z,24.43
2017-10-21T10:55:14.164Z,20.97
2017-10-21T10:57:42.672Z,23.93
2017-10-21T11:00:11.254Z,14.90
2017-10-21T11:02:39.735Z,17.73
2017-10-21T11:05:08.203Z,18.17
2017-10-21T11:07:36.636Z,10.23
2017-10-21T11:10:05.183Z,22.00
2017-10-21T11:12:33.662Z,14.23
2017-10-21T11:15:02.242Z,13.70
2017-10-21T11:17:30.686Z,15.63
2017-10-21T11:20:00.021Z,11.67
2017-10-21T11:22:28.456Z,14.80
2017-10-21T11:24:56.925Z,21.93
2017-10-21T11:27:25.366Z,8.43
2017-10-21T11:29:53.837Z,22.17
2017-10-21T11:32:22.272Z,18.03
2017-10-21T11:34:50.749Z,13.17
2017-10-21T11:37:19.196Z,14.23
2017-10-21T11:39:47.641Z,13.07
2017-10-21T11:42:16.967Z,14.07
2017-10-21T11:44:45.404Z,11.73
2017-10-21T11:47:13.865Z,6.00
2017-10-21T11:49:42.330Z,8.23
2017-10-21T11:52:10.800Z,7.60
2017-10-21T11:54:39.286Z,11.27
2017-10-21T11:57:07.764Z,9.90
2017-10-21T11:59:36.198Z,9.47
2017-10-21T12:02:04.665Z,12.30
2017-10-21T12:04:33.125Z,10.40
2017-10-21T12:07:01.596Z,8.60
2017-10-21T12:09:30.083Z,18.47
2017-10-21T12:11:58.667Z,21.43
2017-10-21T12:14:27.105Z,11.37
2017-10-21T12:16:56.365Z,11.20
2017-10-21T12:19:24.812Z,15.50
2017-10-21T12:21:53.249Z,16.43
2017-10-21T12:24:22.473Z,9.50
2017-10-21T12:26:51.683Z,6.63
2017-10-21T12:29:20.181Z,8.23
2017-10-21T12:31:48.622Z,8.47
2017-10-21T12:34:17.974Z,18.13
2017-10-21T12:36:46.414Z,18.37
2017-10-21T12:39:15.642Z,9.43
2017-10-21T12:41:44.086Z,11.73
2017-10-21T12:44:13.416Z,12.77
2017-10-21T12:46:41.871Z,6.73
2017-10-21T12:49:11.106Z,12.87
2017-10-21T12:51:39.585Z,11.17
2017-10-21T12:54:08.045Z,16.33
2017-10-21T12:56:37.258Z,14.50
2017-10-21T12:59:05.738Z,10.53
2017-10-21T13:01:34.187Z,8.90
2017-10-21T13:04:02.634Z,19.57
2017-10-21T13:06:31.103Z,16.63
2017-10-21T13:08:59.586Z,27.43
2017-10-21T13:11:28.058Z,11.53
2017-10-21T13:13:56.506Z,13.80
2017-10-21T13:16:25.737Z,25.27
2017-10-21T13:18:54.234Z,21.73
2017-10-21T13:21:22.697Z,22.17
2017-10-21T13:23:51.138Z,27.27
2017-10-21T13:26:19.610Z,12.03
2017-10-21T13:28:48.049Z,18.33
2017-10-21T13:31:16.542Z,29.37
2017-10-21T13:33:44.984Z,13.10
2017-10-21T13:36:14.208Z,15.97
2017-10-21T13:38:42.660Z,15.23
2017-10-21T13:41:12.007Z,13.20
2017-10-21T13:43:40.475Z,15.27
2017-10-21T13:48:42.666Z,16.23
2017-10-21T13:51:11.115Z,15.20
2017-10-21T13:53:40.347Z,8.80
2017-10-21T13:56:08.795Z,21.47
2017-10-21T13:58:38.142Z,14.43
2017-10-21T14:01:06.608Z,27.50
2017-10-21T14:03:35.073Z,19.30
2017-10-21T14:06:03.586Z,11.37
2017-10-21T14:08:32.055Z,15.47
2017-10-21T14:11:00.499Z,18.33
2017-10-21T14:13:29.744Z,19.23
2017-10-21T14:15:58.192Z,17.23
2017-10-21T14:18:27.594Z,16.23
2017-10-21T14:20:56.801Z,16.20
2017-10-21T14:23:26.012Z,13.57
2017-10-21T14:25:54.479Z,27.53
2017-10-21T14:28:23.687Z,23.40
2017-10-21T14:30:52.145Z,26.07
2017-10-21T14:33:21.430Z,27.27
2017-10-21T14:35:50.674Z,14.37
2017-10-21T14:38:19.118Z,18.97
2017-10-21T14:40:47.591Z,20.20
2017-10-21T14:43:16.029Z,12.23
2017-10-21T14:45:44.520Z,8.13
2017-10-21T14:48:12.967Z,19.87
2017-10-21T14:50:42.200Z,12.80
2017-10-21T14:53:10.683Z,16.47
2017-10-21T14:55:39.883Z,10.93
2017-10-21T14:58:08.367Z,12.27
2017-10-21T15:00:36.828Z,18.27
2017-10-21T15:03:05.278Z,11.27
2017-10-21T15:05:35.321Z,13.53
2017-10-21T15:08:03.803Z,23.30
2017-10-21T15:10:32.259Z,17.13
2017-10-21T15:13:01.601Z,54.53
2017-10-21T15:15:30.042Z,27.30
2017-10-21T15:17:59.317Z,20.73
2017-10-21T15:20:27.880Z,18.90
2017-10-21T15:22:56.341Z,21.03
2017-10-21T15:25:24.845Z,8.17
2017-10-21T15:27:53.311Z,16.90
2017-10-21T15:30:21.749Z,21.03
2017-10-21T15:32:50.234Z,19.27
2017-10-21T15:35:19.490Z,27.17
2017-10-21T15:37:47.939Z,14.60
2017-10-21T15:40:16.404Z,26.87
2017-10-21T15:42:45.612Z,22.83
2017-10-21T15:45:14.960Z,16.57
2017-10-21T15:47:43.407Z,27.60
2017-10-21T15:50:11.922Z,21.30
2017-10-21T15:52:40.362Z,26.87
2017-10-21T15:55:09.594Z,26.80
2017-10-21T15:57:38.047Z,16.13
2017-10-21T16:00:06.517Z,22.73
2017-10-21T16:02:35.721Z,22.73
2017-10-21T16:05:04.975Z,18.30
2017-10-21T16:07:33.413Z,31.23
2017-10-21T16:10:01.862Z,14.30
2017-10-21T16:12:30.360Z,16.60
2017-10-21T16:14:59.592Z,12.00
2017-10-21T16:17:28.059Z,17.30
2017-10-21T16:19:56.578Z,12.63
2017-10-21T16:22:25.055Z,13.50
2017-10-21T16:24:53.638Z,12.23
2017-10-21T16:27:22.097Z,20.13
2017-10-21T16:29:50.598Z,26.67
2017-10-21T16:32:19.057Z,20.87
2017-10-21T16:34:47.565Z,21.33
2017-10-21T16:37:16.139Z,27.67
2017-10-21T16:39:44.585Z,28.73
2017-10-21T16:42:13.789Z,20.33
2017-10-21T16:44:43.130Z,30.53
2017-10-21T16:47:11.568Z,38.90
2017-10-21T16:49:40.807Z,27.57
2017-10-21T16:52:09.249Z,28.70
2017-10-21T16:54:38.484Z,27.33
2017-10-21T16:57:06.970Z,30.00
2017-10-21T16:59:35.554Z,36.57
2017-10-21T17:02:04.006Z,31.03
2017-10-21T17:04:32.482Z,32.47
2017-10-21T17:07:01.695Z,31.60
2017-10-21T17:09:30.158Z,30.20
2017-10-21T17:11:59.366Z,20.23
2017-10-21T17:14:28.700Z,42.60
2017-10-21T17:16:57.182Z,21.87
2017-10-21T17:19:25.621Z,33.93
2017-10-21T17:21:54.849Z,22.50
2017-10-21T17:24:23.294Z,29.63
2017-10-21T17:26:52.651Z,24.27
2017-10-21T17:29:21.122Z,38.87
2017-10-21T17:31:49.610Z,25.40
2017-10-21T17:34:18.062Z,33.00
2017-10-21T17:36:46.540Z,27.17
2017-10-21T17:39:15.749Z,30.53
2017-10-21T17:41:44.213Z,32.23
2017-10-21T17:44:13.429Z,29.57
2017-10-21T17:46:41.894Z,27.37
2017-10-21T17:49:11.106Z,16.87
2017-10-21T17:51:39.575Z,18.20
2017-10-21T17:54:08.815Z,19.10
2017-10-21T17:56:37.289Z,13.60
2017-10-21T17:59:05.742Z,18.60
2017-10-21T18:01:34.975Z,11.30
2017-10-21T18:04:03.463Z,18.40
2017-10-21T18:06:32.269Z,24.83
2017-10-21T18:09:00.733Z,21.00
2017-10-21T18:11:29.179Z,17.03
2017-10-21T18:13:58.407Z,22.10
2017-10-21T18:16:26.853Z,19.00
2017-10-21T18:18:56.077Z,15.30
2017-10-21T18:21:24.645Z,23.37
2017-10-21T18:23:53.934Z,19.37
2017-10-21T18:26:23.178Z,22.83
2017-10-21T18:28:51.753Z,26.27
2017-10-21T18:31:20.199Z,18.93
2017-10-21T18:33:49.441Z,19.03
2017-10-21T18:36:17.894Z,14.20
2017-10-21T18:38:46.407Z,16.13
2017-10-21T18:41:14.851Z,22.47
2017-10-21T18:43:44.118Z,18.67
2017-10-21T18:46:12.848Z,27.80
2017-10-21T18:48:41.573Z,25.73
2017-10-21T18:51:10.026Z,23.47
2017-10-21T18:53:38.513Z,30.23
2017-10-21T18:56:07.006Z,23.60
2017-10-21T18:58:35.488Z,24.13
2017-10-21T19:01:03.953Z,30.77
2017-10-21T19:03:32.390Z,20.33
2017-10-21T19:06:00.906Z,22.83
2017-10-21T19:08:30.140Z,16.97
2017-10-21T19:10:58.710Z,24.07
2017-10-21T19:13:27.203Z,10.13
2017-10-21T19:15:55.737Z,24.47
2017-10-21T19:18:24.952Z,26.40
2017-10-21T19:20:54.199Z,23.20
2017-10-21T19:23:22.733Z,19.60
2017-10-21T19:25:52.061Z,16.97
2017-10-21T19:28:20.548Z,21.90
2017-10-21T19:30:49.139Z,13.87
2017-10-21T19:33:17.601Z,17.67
2017-10-21T19:35:46.297Z,19.70
2017-10-21T19:38:14.751Z,19.20
2017-10-21T19:40:43.193Z,17.37
2017-10-21T19:43:11.747Z,26.13
2017-10-21T19:45:40.195Z,23.07
2017-10-21T19:48:09.521Z,49.73
2017-10-21T19:50:38.087Z,23.73
2017-10-21T19:53:07.610Z,31.33
2017-10-21T19:55:36.115Z,24.27
2017-10-21T19:58:04.597Z,20.23
2017-10-21T20:00:33.075Z,17.23
2017-10-21T20:03:01.581Z,29.00
2017-10-21T20:05:30.026Z,23.93
2017-10-21T20:07:58.492Z,24.17
2017-10-21T20:10:26.950Z,29.33
2017-10-21T20:12:56.377Z,23.50
2017-10-21T20:15:24.827Z,24.90
2017-10-21T20:17:53.368Z,22.53
2017-10-21T20:20:22.274Z,16.13
2017-10-21T20:22:50.743Z,30.40
2017-10-21T20:25:19.209Z,22.80
2017-10-21T20:27:47.649Z,24.47
2017-10-21T20:30:16.190Z,20.00
2017-10-21T20:32:44.637Z,16.27
2017-10-21T20:35:13.966Z,12.93
2017-10-21T20:37:42.410Z,14.93
2017-10-21T20:40:11.637Z,25.93
2017-10-21T20:42:40.069Z,20.07
2017-10-21T20:45:08.533Z,17.27
2017-10-21T20:47:36.977Z,21.70
2017-10-21T20:50:05.444Z,16.13
2017-10-21T20:52:34.645Z,19.70
2017-10-21T20:55:03.871Z,20.43
2017-10-21T20:57:32.317Z,25.30
2017-10-21T21:00:01.551Z,23.50
2017-10-21T21:02:30.007Z,14.10
2017-10-21T21:04:58.498Z,20.40
2017-10-21T21:07:27.003Z,19.00
2017-10-21T21:09:55.531Z,14.20
2017-10-21T21:12:23.998Z,23.07
2017-10-21T21:14:52.546Z,26.70
2017-10-21T21:17:21.028Z,13.40
2017-10-21T21:19:49.473Z,16.40
2017-10-21T21:22:18.701Z,21.73
2017-10-21T21:24:47.190Z,15.80
2017-10-21T21:27:15.658Z,21.27
2017-10-21T21:29:44.093Z,10.60
2017-10-21T21:32:12.549Z,18.03
2017-10-21T21:34:40.998Z,17.13
2017-10-21T21:37:09.475Z,21.37
2017-10-21T21:39:37.927Z,25.27
2017-10-21T21:42:06.467Z,12.70
2017-10-21T21:44:34.945Z,22.50
2017-10-21T21:47:03.390Z,11.03
2017-10-21T21:49:32.629Z,13.33
2017-10-21T21:52:01.069Z,13.77
2017-10-21T21:54:30.293Z,14.70
2017-10-21T21:56:58.729Z,20.23
2017-10-21T21:59:27.195Z,25.93
2017-10-21T22:01:55.642Z,22.87
2017-10-21T22:04:24.114Z,20.77
2017-10-21T22:06:52.561Z,13.53
2017-10-21T22:09:21.033Z,12.83
2017-10-21T22:11:49.465Z,33.93
2017-10-21T22:14:17.958Z,11.37
2017-10-21T22:16:46.392Z,26.17
2017-10-21T22:19:14.853Z,14.00
2017-10-21T22:21:43.289Z,23.70
2017-10-21T22:24:11.755Z,16.37
2017-10-21T22:26:40.982Z,12.70
2017-10-21T22:29:09.418Z,18.50
2017-10-21T22:31:38.655Z,20.50
2017-10-21T22:34:07.150Z,39.50
2017-10-21T22:36:35.618Z,11.50
2017-10-21T22:39:04.062Z,11.60
2017-10-21T22:41:33.309Z,20.07
2017-10-21T22:44:01.758Z,7.20
2017-10-21T22:46:31.091Z,16.33
2017-10-21T22:48:59.538Z,14.97
2017-10-21T22:51:28.762Z,13.93
2017-10-21T22:53:57.201Z,17.93
2017-10-21T22:56:25.689Z,13.20
2017-10-21T22:58:54.901Z,39.93
2017-10-21T23:01:24.238Z,17.10
2017-10-21T23:03:52.725Z,29.33
2017-10-21T23:06:21.211Z,16.03
2017-10-21T23:08:49.679Z,15.90
2017-10-21T23:11:18.129Z,15.70
2017-10-21T23:13:47.363Z,14.80
2017-10-21T23:16:16.357Z,12.50
2017-10-21T23:18:44.834Z,25.13
2017-10-21T23:21:13.277Z,17.07
2017-10-21T23:23:42.511Z,9.57
2017-10-21T23:26:10.965Z,13.67
2017-10-21T23:28:40.310Z,18.97
2017-10-21T23:31:08.791Z,17.80
2017-10-21T23:33:37.248Z,14.13
2017-10-21T23:36:05.682Z,16.67
2017-10-21T23:38:34.233Z,21.20
2017-10-21T23:41:02.684Z,24.43
2017-10-21T23:43:31.946Z,18.73
2017-10-21T23:46:00.390Z,27.80
2017-10-21T23:48:28.829Z,16.50
2017-10-21T23:50:57.363Z,23.67
2017-10-21T23:53:26.771Z,19.60
2017-10-21T23:55:55.347Z,22.70
2017-10-21T23:58:23.789Z,22.23
